sensor_id;sensor_type;location;lat;lon;timestamp;P1;durP1;ratioP1;P2;durP2;ratioP2
12122;SDS011;6125;59.628;17.852;2023-09-12T00:00:48;12.67;;;10.17;;
12122;SDS011;6125;59.628;17.852;2023-09-12T00:03:18;14.20;;;9.90;;
12122;SDS011;6125;59.628;17.852;2023-09-12T00:05:50;12.83;;;10.30;;
12122;SDS011;6125;59.628;17.852;2023-09-12T00:08:17;13.90;;;10.47;;
12122;SDS011;6125;59.628;17.852;2023-09-12T00:10:44;13.90;;;10.50;;
12122;SDS011;6125;59.628;17.852;2023-09-12T00:13:11;11.60;;;10.10;;
12122;SDS011;6125;59.628;17.852;2023-09-12T00:15:40;11.67;;;10.43;;
12122;SDS011;6125;59.628;17.852;2023-09-12T00:18:07;13.20;;;9.83;;
12122;SDS011;6125;59.628;17.852;2023-09-12T00:20:34;14.60;;;10.83;;
12122;SDS011;6125;59.628;17.852;2023-09-12T00:23:01;14.77;;;10.17;;
12122;SDS011;6125;59.628;17.852;2023-09-12T00:25:29;15.03;;;10.90;;
12122;SDS011;6125;59.628;17.852;2023-09-12T00:27:56;14.90;;;11.37;;
12122;SDS011;6125;59.628;17.852;2023-09-12T00:30:23;15.23;;;11.73;;
12122;SDS011;6125;59.628;17.852;2023-09-12T00:32:52;14.30;;;11.63;;
12122;SDS011;6125;59.628;17.852;2023-09-12T00:35:19;16.53;;;12.10;;
12122;SDS011;6125;59.628;17.852;2023-09-12T00:37:46;15.10;;;11.33;;
12122;SDS011;6125;59.628;17.852;2023-09-12T00:40:13;14.97;;;12.47;;
12122;SDS011;6125;59.628;17.852;2023-09-12T00:42:40;18.63;;;11.90;;
12122;SDS011;6125;59.628;17.852;2023-09-12T00:45:07;15.07;;;11.30;;
12122;SDS011;6125;59.628;17.852;2023-09-12T00:47:35;15.37;;;12.33;;
12122;SDS011;6125;59.628;17.852;2023-09-12T00:50:04;15.47;;;11.80;;
12122;SDS011;6125;59.628;17.852;2023-09-12T00:52:32;13.93;;;12.17;;
12122;SDS011;6125;59.628;17.852;2023-09-12T00:55:01;18.40;;;12.67;;
12122;SDS011;6125;59.628;17.852;2023-09-12T00:57:28;20.67;;;13.43;;
12122;SDS011;6125;59.628;17.852;2023-09-12T00:59:57;15.47;;;12.50;;
12122;SDS011;6125;59.628;17.852;2023-09-12T01:02:25;17.83;;;12.03;;
12122;SDS011;6125;59.628;17.852;2023-09-12T01:04:52;17.73;;;13.37;;
12122;SDS011;6125;59.628;17.852;2023-09-12T01:07:20;17.83;;;12.90;;
12122;SDS011;6125;59.628;17.852;2023-09-12T01:09:47;21.60;;;13.90;;
12122;SDS011;6125;59.628;17.852;2023-09-12T01:12:14;18.87;;;14.10;;
12122;SDS011;6125;59.628;17.852;2023-09-12T01:14:42;21.40;;;14.47;;
12122;SDS011;6125;59.628;17.852;2023-09-12T01:17:09;24.07;;;13.77;;
12122;SDS011;6125;59.628;17.852;2023-09-12T01:19:36;18.87;;;13.77;;
12122;SDS011;6125;59.628;17.852;2023-09-12T01:22:15;19.37;;;13.27;;
12122;SDS011;6125;59.628;17.852;2023-09-12T01:25:17;21.67;;;14.83;;
12122;SDS011;6125;59.628;17.852;2023-09-12T01:28:11;19.53;;;13.43;;
12122;SDS011;6125;59.628;17.852;2023-09-12T01:30:42;20.33;;;15.10;;
12122;SDS011;6125;59.628;17.852;2023-09-12T01:33:15;22.93;;;15.63;;
12122;SDS011;6125;59.628;17.852;2023-09-12T01:35:42;22.33;;;14.20;;
12122;SDS011;6125;59.628;17.852;2023-09-12T01:38:11;23.43;;;14.07;;
12122;SDS011;6125;59.628;17.852;2023-09-12T01:40:49;24.23;;;15.33;;
12122;SDS011;6125;59.628;17.852;2023-09-12T01:43:21;21.20;;;15.13;;
12122;SDS011;6125;59.628;17.852;2023-09-12T01:45:49;19.90;;;15.47;;
12122;SDS011;6125;59.628;17.852;2023-09-12T01:48:19;22.37;;;15.67;;
12122;SDS011;6125;59.628;17.852;2023-09-12T01:50:48;23.60;;;15.43;;
12122;SDS011;6125;59.628;17.852;2023-09-12T01:53:16;20.30;;;15.07;;
12122;SDS011;6125;59.628;17.852;2023-09-12T01:55:43;19.97;;;15.00;;
12122;SDS011;6125;59.628;17.852;2023-09-12T01:58:11;22.37;;;14.63;;
12122;SDS011;6125;59.628;17.852;2023-09-12T02:00:40;20.80;;;15.77;;
12122;SDS011;6125;59.628;17.852;2023-09-12T02:03:08;22.20;;;15.40;;
12122;SDS011;6125;59.628;17.852;2023-09-12T02:05:35;21.43;;;15.50;;
12122;SDS011;6125;59.628;17.852;2023-09-12T02:08:02;20.20;;;15.20;;
12122;SDS011;6125;59.628;17.852;2023-09-12T02:10:30;21.00;;;15.80;;
12122;SDS011;6125;59.628;17.852;2023-09-12T02:12:57;22.40;;;16.00;;
12122;SDS011;6125;59.628;17.852;2023-09-12T02:15:24;24.00;;;15.73;;
12122;SDS011;6125;59.628;17.852;2023-09-12T02:17:52;19.37;;;14.70;;
12122;SDS011;6125;59.628;17.852;2023-09-12T02:20:19;19.13;;;15.17;;
12122;SDS011;6125;59.628;17.852;2023-09-12T02:22:46;18.23;;;13.67;;
12122;SDS011;6125;59.628;17.852;2023-09-12T02:25:14;17.83;;;13.90;;
12122;SDS011;6125;59.628;17.852;2023-09-12T02:27:41;19.30;;;15.23;;
12122;SDS011;6125;59.628;17.852;2023-09-12T02:30:08;19.23;;;14.47;;
12122;SDS011;6125;59.628;17.852;2023-09-12T02:32:35;19.10;;;14.47;;
12122;SDS011;6125;59.628;17.852;2023-09-12T02:35:04;18.77;;;15.10;;
12122;SDS011;6125;59.628;17.852;2023-09-12T02:37:31;19.00;;;13.67;;
12122;SDS011;6125;59.628;17.852;2023-09-12T02:39:58;19.20;;;14.23;;
12122;SDS011;6125;59.628;17.852;2023-09-12T02:42:25;19.30;;;13.70;;
12122;SDS011;6125;59.628;17.852;2023-09-12T02:44:52;17.93;;;12.63;;
12122;SDS011;6125;59.628;17.852;2023-09-12T02:47:19;17.00;;;13.10;;
12122;SDS011;6125;59.628;17.852;2023-09-12T02:49:46;15.97;;;12.87;;
12122;SDS011;6125;59.628;17.852;2023-09-12T02:52:15;17.13;;;13.37;;
12122;SDS011;6125;59.628;17.852;2023-09-12T02:54:42;20.93;;;14.03;;
12122;SDS011;6125;59.628;17.852;2023-09-12T02:57:09;21.40;;;13.67;;
12122;SDS011;6125;59.628;17.852;2023-09-12T02:59:36;16.30;;;12.80;;
12122;SDS011;6125;59.628;17.852;2023-09-12T03:02:03;14.87;;;12.83;;
12122;SDS011;6125;59.628;17.852;2023-09-12T03:04:30;16.33;;;13.07;;
12122;SDS011;6125;59.628;17.852;2023-09-12T03:06:57;15.53;;;12.50;;
12122;SDS011;6125;59.628;17.852;2023-09-12T03:09:25;16.17;;;13.17;;
12122;SDS011;6125;59.628;17.852;2023-09-12T03:11:52;20.20;;;13.37;;
12122;SDS011;6125;59.628;17.852;2023-09-12T03:14:19;14.03;;;12.17;;
12122;SDS011;6125;59.628;17.852;2023-09-12T03:16:46;15.70;;;12.43;;
12122;SDS011;6125;59.628;17.852;2023-09-12T03:19:13;14.47;;;12.60;;
12122;SDS011;6125;59.628;17.852;2023-09-12T03:21:41;14.67;;;11.90;;
12122;SDS011;6125;59.628;17.852;2023-09-12T03:24:08;16.10;;;11.63;;
12122;SDS011;6125;59.628;17.852;2023-09-12T03:26:36;13.87;;;11.67;;
12122;SDS011;6125;59.628;17.852;2023-09-12T03:29:03;13.10;;;11.57;;
12122;SDS011;6125;59.628;17.852;2023-09-12T03:31:31;15.23;;;12.20;;
12122;SDS011;6125;59.628;17.852;2023-09-12T03:33:58;14.80;;;11.63;;
12122;SDS011;6125;59.628;17.852;2023-09-12T03:36:25;14.23;;;11.83;;
12122;SDS011;6125;59.628;17.852;2023-09-12T03:38:52;13.07;;;11.17;;
12122;SDS011;6125;59.628;17.852;2023-09-12T03:41:19;15.37;;;11.30;;
12122;SDS011;6125;59.628;17.852;2023-09-12T03:43:52;17.40;;;11.13;;
12122;SDS011;6125;59.628;17.852;2023-09-12T03:46:19;12.50;;;11.20;;
12122;SDS011;6125;59.628;17.852;2023-09-12T03:48:46;14.40;;;11.07;;
12122;SDS011;6125;59.628;17.852;2023-09-12T03:51:14;15.50;;;11.57;;
12122;SDS011;6125;59.628;17.852;2023-09-12T03:53:41;11.93;;;10.60;;
12122;SDS011;6125;59.628;17.852;2023-09-12T03:56:08;13.93;;;10.90;;
12122;SDS011;6125;59.628;17.852;2023-09-12T03:58:37;12.37;;;10.00;;
12122;SDS011;6125;59.628;17.852;2023-09-12T04:01:06;12.77;;;10.27;;
12122;SDS011;6125;59.628;17.852;2023-09-12T04:03:33;12.17;;;10.10;;
12122;SDS011;6125;59.628;17.852;2023-09-12T04:06:00;12.67;;;10.03;;
12122;SDS011;6125;59.628;17.852;2023-09-12T04:08:27;11.83;;;10.53;;
12122;SDS011;6125;59.628;17.852;2023-09-12T04:10:54;11.60;;;10.17;;
12122;SDS011;6125;59.628;17.852;2023-09-12T04:13:21;12.33;;;10.23;;
12122;SDS011;6125;59.628;17.852;2023-09-12T04:15:48;12.17;;;10.70;;
12122;SDS011;6125;59.628;17.852;2023-09-12T04:18:17;11.87;;;10.50;;
12122;SDS011;6125;59.628;17.852;2023-09-12T04:20:44;12.97;;;9.97;;
12122;SDS011;6125;59.628;17.852;2023-09-12T04:23:11;11.40;;;9.60;;
12122;SDS011;6125;59.628;17.852;2023-09-12T04:25:38;11.10;;;9.87;;
12122;SDS011;6125;59.628;17.852;2023-09-12T04:28:08;12.27;;;10.53;;
12122;SDS011;6125;59.628;17.852;2023-09-12T04:30:35;11.60;;;10.40;;
12122;SDS011;6125;59.628;17.852;2023-09-12T04:33:02;11.73;;;9.70;;
12122;SDS011;6125;59.628;17.852;2023-09-12T04:35:33;10.50;;;9.37;;
12122;SDS011;6125;59.628;17.852;2023-09-12T04:38:01;10.87;;;9.50;;
12122;SDS011;6125;59.628;17.852;2023-09-12T04:40:28;11.23;;;9.90;;
12122;SDS011;6125;59.628;17.852;2023-09-12T04:42:56;12.80;;;9.73;;
12122;SDS011;6125;59.628;17.852;2023-09-12T04:45:23;10.77;;;9.67;;
12122;SDS011;6125;59.628;17.852;2023-09-12T04:47:50;12.37;;;9.37;;
12122;SDS011;6125;59.628;17.852;2023-09-12T04:50:17;10.83;;;9.70;;
12122;SDS011;6125;59.628;17.852;2023-09-12T04:52:45;10.47;;;9.13;;
12122;SDS011;6125;59.628;17.852;2023-09-12T04:55:12;11.17;;;9.47;;
12122;SDS011;6125;59.628;17.852;2023-09-12T04:57:40;10.47;;;9.03;;
12122;SDS011;6125;59.628;17.852;2023-09-12T05:00:07;10.77;;;9.20;;
12122;SDS011;6125;59.628;17.852;2023-09-12T05:02:35;10.37;;;9.27;;
12122;SDS011;6125;59.628;17.852;2023-09-12T05:05:03;10.70;;;9.60;;
12122;SDS011;6125;59.628;17.852;2023-09-12T05:07:30;11.00;;;8.90;;
12122;SDS011;6125;59.628;17.852;2023-09-12T05:10:06;11.30;;;9.60;;
12122;SDS011;6125;59.628;17.852;2023-09-12T05:12:33;10.37;;;8.93;;
12122;SDS011;6125;59.628;17.852;2023-09-12T05:15:00;13.20;;;9.50;;
12122;SDS011;6125;59.628;17.852;2023-09-12T05:17:27;10.10;;;9.07;;
12122;SDS011;6125;59.628;17.852;2023-09-12T05:19:54;11.73;;;9.40;;
12122;SDS011;6125;59.628;17.852;2023-09-12T05:22:21;13.67;;;9.60;;
12122;SDS011;6125;59.628;17.852;2023-09-12T05:24:48;11.10;;;8.97;;
12122;SDS011;6125;59.628;17.852;2023-09-12T05:27:17;11.80;;;9.13;;
12122;SDS011;6125;59.628;17.852;2023-09-12T05:29:44;10.53;;;9.23;;
12122;SDS011;6125;59.628;17.852;2023-09-12T05:32:11;10.60;;;8.03;;
12122;SDS011;6125;59.628;17.852;2023-09-12T05:34:38;13.10;;;8.67;;
12122;SDS011;6125;59.628;17.852;2023-09-12T05:37:05;9.13;;;8.10;;
12122;SDS011;6125;59.628;17.852;2023-09-12T05:39:32;9.23;;;8.10;;
12122;SDS011;6125;59.628;17.852;2023-09-12T05:41:59;10.53;;;8.10;;
12122;SDS011;6125;59.628;17.852;2023-09-12T05:44:27;9.50;;;7.30;;
12122;SDS011;6125;59.628;17.852;2023-09-12T05:46:54;11.03;;;8.83;;
12122;SDS011;6125;59.628;17.852;2023-09-12T05:49:21;8.73;;;7.50;;
12122;SDS011;6125;59.628;17.852;2023-09-12T05:51:48;8.50;;;7.60;;
12122;SDS011;6125;59.628;17.852;2023-09-12T05:54:16;9.73;;;7.57;;
12122;SDS011;6125;59.628;17.852;2023-09-12T05:56:44;10.67;;;8.07;;
12122;SDS011;6125;59.628;17.852;2023-09-12T05:59:12;10.57;;;9.00;;
12122;SDS011;6125;59.628;17.852;2023-09-12T06:01:41;12.93;;;10.17;;
12122;SDS011;6125;59.628;17.852;2023-09-12T06:04:08;11.33;;;9.47;;
12122;SDS011;6125;59.628;17.852;2023-09-12T06:06:35;14.73;;;10.60;;
12122;SDS011;6125;59.628;17.852;2023-09-12T06:09:02;13.87;;;10.47;;
12122;SDS011;6125;59.628;17.852;2023-09-12T06:11:29;11.53;;;10.07;;
12122;SDS011;6125;59.628;17.852;2023-09-12T06:13:57;12.20;;;9.57;;
12122;SDS011;6125;59.628;17.852;2023-09-12T06:16:24;13.73;;;10.37;;
12122;SDS011;6125;59.628;17.852;2023-09-12T06:18:53;13.53;;;10.27;;
12122;SDS011;6125;59.628;17.852;2023-09-12T06:21:20;11.30;;;9.17;;
12122;SDS011;6125;59.628;17.852;2023-09-12T06:23:47;12.67;;;9.83;;
12122;SDS011;6125;59.628;17.852;2023-09-12T06:26:14;10.77;;;9.67;;
12122;SDS011;6125;59.628;17.852;2023-09-12T06:28:41;10.27;;;9.17;;
12122;SDS011;6125;59.628;17.852;2023-09-12T06:31:08;15.60;;;9.57;;
12122;SDS011;6125;59.628;17.852;2023-09-12T06:33:35;15.33;;;8.57;;
12122;SDS011;6125;59.628;17.852;2023-09-12T06:36:05;11.40;;;8.77;;
12122;SDS011;6125;59.628;17.852;2023-09-12T06:38:32;9.47;;;8.57;;
12122;SDS011;6125;59.628;17.852;2023-09-12T06:40:59;12.47;;;8.20;;
12122;SDS011;6125;59.628;17.852;2023-09-12T06:43:29;8.83;;;8.00;;
12122;SDS011;6125;59.628;17.852;2023-09-12T06:45:56;11.37;;;8.23;;
12122;SDS011;6125;59.628;17.852;2023-09-12T06:48:24;9.37;;;8.27;;
12122;SDS011;6125;59.628;17.852;2023-09-12T06:50:52;8.80;;;7.57;;
12122;SDS011;6125;59.628;17.852;2023-09-12T06:53:21;9.40;;;8.40;;
12122;SDS011;6125;59.628;17.852;2023-09-12T06:55:48;8.57;;;7.67;;
12122;SDS011;6125;59.628;17.852;2023-09-12T06:58:15;10.63;;;8.87;;
12122;SDS011;6125;59.628;17.852;2023-09-12T07:00:42;13.23;;;9.13;;
12122;SDS011;6125;59.628;17.852;2023-09-12T07:03:09;10.73;;;8.47;;
12122;SDS011;6125;59.628;17.852;2023-09-12T07:05:36;10.17;;;8.63;;
12122;SDS011;6125;59.628;17.852;2023-09-12T07:08:05;9.50;;;8.60;;
12122;SDS011;6125;59.628;17.852;2023-09-12T07:10:35;9.63;;;8.10;;
12122;SDS011;6125;59.628;17.852;2023-09-12T07:13:02;10.33;;;8.33;;
12122;SDS011;6125;59.628;17.852;2023-09-12T07:15:29;10.03;;;9.03;;
12122;SDS011;6125;59.628;17.852;2023-09-12T07:17:56;10.23;;;8.43;;
12122;SDS011;6125;59.628;17.852;2023-09-12T07:20:24;8.63;;;7.73;;
12122;SDS011;6125;59.628;17.852;2023-09-12T07:22:51;8.60;;;7.77;;
12122;SDS011;6125;59.628;17.852;2023-09-12T07:25:18;8.43;;;7.33;;
12122;SDS011;6125;59.628;17.852;2023-09-12T07:27:50;7.43;;;6.60;;
12122;SDS011;6125;59.628;17.852;2023-09-12T07:30:17;8.07;;;7.00;;
12122;SDS011;6125;59.628;17.852;2023-09-12T07:32:44;11.67;;;7.27;;
12122;SDS011;6125;59.628;17.852;2023-09-12T07:35:11;9.23;;;7.70;;
12122;SDS011;6125;59.628;17.852;2023-09-12T07:37:38;9.97;;;7.17;;
12122;SDS011;6125;59.628;17.852;2023-09-12T07:40:06;8.67;;;7.77;;
12122;SDS011;6125;59.628;17.852;2023-09-12T07:42:35;8.07;;;7.27;;
12122;SDS011;6125;59.628;17.852;2023-09-12T07:45:03;9.17;;;8.20;;
12122;SDS011;6125;59.628;17.852;2023-09-12T07:47:31;10.87;;;8.23;;
12122;SDS011;6125;59.628;17.852;2023-09-12T07:49:58;9.60;;;8.00;;
12122;SDS011;6125;59.628;17.852;2023-09-12T07:52:25;8.13;;;7.30;;
12122;SDS011;6125;59.628;17.852;2023-09-12T07:54:52;10.07;;;7.30;;
12122;SDS011;6125;59.628;17.852;2023-09-12T07:57:25;8.87;;;7.67;;
12122;SDS011;6125;59.628;17.852;2023-09-12T07:59:52;8.87;;;6.63;;
12122;SDS011;6125;59.628;17.852;2023-09-12T08:02:21;7.10;;;6.40;;
12122;SDS011;6125;59.628;17.852;2023-09-12T08:04:48;8.47;;;6.93;;
12122;SDS011;6125;59.628;17.852;2023-09-12T08:07:15;8.83;;;6.60;;
12122;SDS011;6125;59.628;17.852;2023-09-12T08:09:49;9.17;;;6.80;;
12122;SDS011;6125;59.628;17.852;2023-09-12T08:12:17;7.03;;;6.30;;
12122;SDS011;6125;59.628;17.852;2023-09-12T08:14:45;7.03;;;6.23;;
12122;SDS011;6125;59.628;17.852;2023-09-12T08:17:12;6.93;;;6.20;;
12122;SDS011;6125;59.628;17.852;2023-09-12T08:19:41;7.53;;;6.33;;
12122;SDS011;6125;59.628;17.852;2023-09-12T08:22:08;7.67;;;6.07;;
12122;SDS011;6125;59.628;17.852;2023-09-12T08:24:36;8.70;;;5.67;;
12122;SDS011;6125;59.628;17.852;2023-09-12T08:27:04;9.37;;;6.27;;
12122;SDS011;6125;59.628;17.852;2023-09-12T08:29:32;7.43;;;5.63;;
12122;SDS011;6125;59.628;17.852;2023-09-12T08:32:00;6.73;;;5.87;;
12122;SDS011;6125;59.628;17.852;2023-09-12T08:34:27;6.33;;;5.47;;
12122;SDS011;6125;59.628;17.852;2023-09-12T08:36:56;6.57;;;5.97;;
12122;SDS011;6125;59.628;17.852;2023-09-12T08:39:23;8.63;;;6.37;;
12122;SDS011;6125;59.628;17.852;2023-09-12T08:41:51;6.67;;;6.07;;
12122;SDS011;6125;59.628;17.852;2023-09-12T08:44:19;7.27;;;5.97;;
12122;SDS011;6125;59.628;17.852;2023-09-12T08:46:47;6.27;;;5.50;;
12122;SDS011;6125;59.628;17.852;2023-09-12T08:49:14;9.57;;;6.53;;
12122;SDS011;6125;59.628;17.852;2023-09-12T08:51:42;7.03;;;6.33;;
12122;SDS011;6125;59.628;17.852;2023-09-12T08:54:11;7.83;;;5.93;;
12122;SDS011;6125;59.628;17.852;2023-09-12T08:56:39;9.40;;;6.93;;
12122;SDS011;6125;59.628;17.852;2023-09-12T08:59:10;7.30;;;6.43;;
12122;SDS011;6125;59.628;17.852;2023-09-12T09:01:38;8.80;;;6.40;;
12122;SDS011;6125;59.628;17.852;2023-09-12T09:04:06;7.60;;;6.87;;
12122;SDS011;6125;59.628;17.852;2023-09-12T09:06:33;6.90;;;6.30;;
12122;SDS011;6125;59.628;17.852;2023-09-12T09:09:03;7.23;;;6.53;;
12122;SDS011;6125;59.628;17.852;2023-09-12T09:11:33;7.77;;;6.50;;
12122;SDS011;6125;59.628;17.852;2023-09-12T09:14:01;8.63;;;6.67;;
12122;SDS011;6125;59.628;17.852;2023-09-12T09:16:29;7.27;;;6.43;;
12122;SDS011;6125;59.628;17.852;2023-09-12T09:18:57;7.50;;;6.30;;
12122;SDS011;6125;59.628;17.852;2023-09-12T09:21:25;7.13;;;6.43;;
12122;SDS011;6125;59.628;17.852;2023-09-12T09:23:57;6.80;;;6.20;;
12122;SDS011;6125;59.628;17.852;2023-09-12T09:26:41;6.97;;;6.27;;
12122;SDS011;6125;59.628;17.852;2023-09-12T09:29:10;6.80;;;6.10;;
12122;SDS011;6125;59.628;17.852;2023-09-12T09:31:40;7.00;;;6.23;;
12122;SDS011;6125;59.628;17.852;2023-09-12T09:34:10;6.97;;;6.10;;
12122;SDS011;6125;59.628;17.852;2023-09-12T09:36:40;7.20;;;5.67;;
12122;SDS011;6125;59.628;17.852;2023-09-12T09:39:08;6.50;;;6.00;;
12122;SDS011;6125;59.628;17.852;2023-09-12T09:41:36;9.23;;;6.43;;
12122;SDS011;6125;59.628;17.852;2023-09-12T09:44:05;8.77;;;6.20;;
12122;SDS011;6125;59.628;17.852;2023-09-12T09:46:33;6.67;;;5.70;;
12122;SDS011;6125;59.628;17.852;2023-09-12T09:49:01;7.30;;;6.10;;
12122;SDS011;6125;59.628;17.852;2023-09-12T09:51:29;8.53;;;5.67;;
12122;SDS011;6125;59.628;17.852;2023-09-12T09:53:57;7.80;;;6.47;;
12122;SDS011;6125;59.628;17.852;2023-09-12T09:56:25;6.70;;;6.00;;
12122;SDS011;6125;59.628;17.852;2023-09-12T09:58:53;7.57;;;5.87;;
12122;SDS011;6125;59.628;17.852;2023-09-12T10:01:23;7.47;;;5.50;;
12122;SDS011;6125;59.628;17.852;2023-09-12T10:03:55;7.63;;;6.83;;
12122;SDS011;6125;59.628;17.852;2023-09-12T10:06:25;8.20;;;5.73;;
12122;SDS011;6125;59.628;17.852;2023-09-12T10:08:54;8.67;;;5.97;;
12122;SDS011;6125;59.628;17.852;2023-09-12T10:11:22;6.80;;;6.00;;
12122;SDS011;6125;59.628;17.852;2023-09-12T10:13:57;8.23;;;5.80;;
12122;SDS011;6125;59.628;17.852;2023-09-12T10:16:30;8.10;;;5.83;;
12122;SDS011;6125;59.628;17.852;2023-09-12T10:18:58;7.73;;;6.10;;
12122;SDS011;6125;59.628;17.852;2023-09-12T10:21:35;6.27;;;5.67;;
12122;SDS011;6125;59.628;17.852;2023-09-12T10:24:03;10.20;;;6.40;;
12122;SDS011;6125;59.628;17.852;2023-09-12T10:26:33;6.33;;;5.50;;
12122;SDS011;6125;59.628;17.852;2023-09-12T10:29:01;9.63;;;7.20;;
12122;SDS011;6125;59.628;17.852;2023-09-12T10:31:31;7.63;;;6.00;;
12122;SDS011;6125;59.628;17.852;2023-09-12T10:33:59;9.07;;;6.07;;
12122;SDS011;6125;59.628;17.852;2023-09-12T10:36:29;5.97;;;5.47;;
12122;SDS011;6125;59.628;17.852;2023-09-12T10:38:57;6.53;;;5.60;;
12122;SDS011;6125;59.628;17.852;2023-09-12T10:41:25;6.53;;;5.83;;
12122;SDS011;6125;59.628;17.852;2023-09-12T10:43:53;8.50;;;5.27;;
12122;SDS011;6125;59.628;17.852;2023-09-12T10:46:21;8.03;;;5.63;;
12122;SDS011;6125;59.628;17.852;2023-09-12T10:48:50;6.77;;;4.90;;
12122;SDS011;6125;59.628;17.852;2023-09-12T10:51:18;7.13;;;5.67;;
12122;SDS011;6125;59.628;17.852;2023-09-12T10:53:46;6.90;;;5.33;;
12122;SDS011;6125;59.628;17.852;2023-09-12T10:56:16;9.27;;;5.77;;
12122;SDS011;6125;59.628;17.852;2023-09-12T11:01:39;7.23;;;5.73;;
12122;SDS011;6125;59.628;17.852;2023-09-12T11:07:05;9.13;;;5.50;;
12122;SDS011;6125;59.628;17.852;2023-09-12T11:10:19;7.90;;;5.27;;
12122;SDS011;6125;59.628;17.852;2023-09-12T11:12:48;7.93;;;6.30;;
12122;SDS011;6125;59.628;17.852;2023-09-12T11:15:16;6.57;;;5.57;;
12122;SDS011;6125;59.628;17.852;2023-09-12T11:17:43;7.30;;;5.87;;
12122;SDS011;6125;59.628;17.852;2023-09-12T11:20:13;6.77;;;5.97;;
12122;SDS011;6125;59.628;17.852;2023-09-12T11:22:41;7.87;;;6.73;;
12122;SDS011;6125;59.628;17.852;2023-09-12T11:25:16;8.90;;;6.90;;
12122;SDS011;6125;59.628;17.852;2023-09-12T11:27:45;12.73;;;7.33;;
12122;SDS011;6125;59.628;17.852;2023-09-12T11:30:28;13.03;;;7.27;;
12122;SDS011;6125;59.628;17.852;2023-09-12T11:32:56;12.97;;;7.60;;
12122;SDS011;6125;59.628;17.852;2023-09-12T11:35:27;11.87;;;8.03;;
12122;SDS011;6125;59.628;17.852;2023-09-12T11:37:55;9.50;;;7.57;;
12122;SDS011;6125;59.628;17.852;2023-09-12T11:40:23;7.93;;;7.23;;
12122;SDS011;6125;59.628;17.852;2023-09-12T11:42:51;10.97;;;8.07;;
12122;SDS011;6125;59.628;17.852;2023-09-12T11:45:19;11.17;;;7.93;;
12122;SDS011;6125;59.628;17.852;2023-09-12T11:47:48;10.30;;;7.63;;
12122;SDS011;6125;59.628;17.852;2023-09-12T11:50:32;10.53;;;8.10;;
12122;SDS011;6125;59.628;17.852;2023-09-12T11:53:01;10.23;;;7.60;;
12122;SDS011;6125;59.628;17.852;2023-09-12T11:55:30;9.70;;;7.67;;
12122;SDS011;6125;59.628;17.852;2023-09-12T11:57:58;8.83;;;7.93;;
12122;SDS011;6125;59.628;17.852;2023-09-12T12:00:25;12.67;;;8.80;;
12122;SDS011;6125;59.628;17.852;2023-09-12T12:02:53;10.13;;;8.80;;
12122;SDS011;6125;59.628;17.852;2023-09-12T12:05:21;11.13;;;9.07;;
12122;SDS011;6125;59.628;17.852;2023-09-12T12:07:49;11.63;;;9.00;;
12122;SDS011;6125;59.628;17.852;2023-09-12T12:10:17;10.67;;;9.57;;
12122;SDS011;6125;59.628;17.852;2023-09-12T12:12:44;14.07;;;9.70;;
12122;SDS011;6125;59.628;17.852;2023-09-12T12:15:12;11.63;;;9.20;;
12122;SDS011;6125;59.628;17.852;2023-09-12T12:17:42;10.83;;;9.43;;
12122;SDS011;6125;59.628;17.852;2023-09-12T12:20:10;11.87;;;9.67;;
12122;SDS011;6125;59.628;17.852;2023-09-12T12:22:38;12.17;;;9.77;;
12122;SDS011;6125;59.628;17.852;2023-09-12T12:25:07;13.37;;;9.87;;
12122;SDS011;6125;59.628;17.852;2023-09-12T12:27:37;11.87;;;10.57;;
12122;SDS011;6125;59.628;17.852;2023-09-12T12:30:06;12.63;;;10.53;;
12122;SDS011;6125;59.628;17.852;2023-09-12T12:32:35;10.60;;;9.50;;
12122;SDS011;6125;59.628;17.852;2023-09-12T12:35:03;12.93;;;10.60;;
12122;SDS011;6125;59.628;17.852;2023-09-12T12:37:30;14.57;;;10.73;;
12122;SDS011;6125;59.628;17.852;2023-09-12T12:39:58;12.57;;;10.60;;
12122;SDS011;6125;59.628;17.852;2023-09-12T12:42:32;11.23;;;10.10;;
12122;SDS011;6125;59.628;17.852;2023-09-12T12:45:00;11.47;;;9.93;;
12122;SDS011;6125;59.628;17.852;2023-09-12T12:47:28;11.77;;;10.30;;
12122;SDS011;6125;59.628;17.852;2023-09-12T12:49:57;12.57;;;11.00;;
12122;SDS011;6125;59.628;17.852;2023-09-12T12:52:24;12.00;;;10.80;;
12122;SDS011;6125;59.628;17.852;2023-09-12T12:54:51;13.90;;;11.50;;
12122;SDS011;6125;59.628;17.852;2023-09-12T12:57:19;13.80;;;11.70;;
12122;SDS011;6125;59.628;17.852;2023-09-12T12:59:48;15.87;;;11.70;;
12122;SDS011;6125;59.628;17.852;2023-09-12T13:02:16;13.27;;;11.20;;
12122;SDS011;6125;59.628;17.852;2023-09-12T13:04:44;13.10;;;11.67;;
12122;SDS011;6125;59.628;17.852;2023-09-12T13:07:20;14.17;;;12.53;;
12122;SDS011;6125;59.628;17.852;2023-09-12T13:09:47;14.53;;;11.70;;
12122;SDS011;6125;59.628;17.852;2023-09-12T13:12:14;13.47;;;11.23;;
12122;SDS011;6125;59.628;17.852;2023-09-12T13:14:42;12.90;;;11.10;;
12122;SDS011;6125;59.628;17.852;2023-09-12T13:17:11;15.23;;;11.47;;
12122;SDS011;6125;59.628;17.852;2023-09-12T13:19:38;12.90;;;11.23;;
12122;SDS011;6125;59.628;17.852;2023-09-12T13:22:05;13.17;;;11.77;;
12122;SDS011;6125;59.628;17.852;2023-09-12T13:24:32;12.60;;;11.30;;
12122;SDS011;6125;59.628;17.852;2023-09-12T13:26:59;14.90;;;11.77;;
12122;SDS011;6125;59.628;17.852;2023-09-12T13:29:26;13.77;;;10.60;;
12122;SDS011;6125;59.628;17.852;2023-09-12T13:31:53;17.43;;;12.63;;
12122;SDS011;6125;59.628;17.852;2023-09-12T13:34:22;13.30;;;10.57;;
12122;SDS011;6125;59.628;17.852;2023-09-12T13:36:49;14.40;;;11.67;;
12122;SDS011;6125;59.628;17.852;2023-09-12T13:39:16;14.20;;;10.90;;
12122;SDS011;6125;59.628;17.852;2023-09-12T13:41:43;17.37;;;10.93;;
12122;SDS011;6125;59.628;17.852;2023-09-12T13:44:10;14.70;;;10.83;;
12122;SDS011;6125;59.628;17.852;2023-09-12T13:46:37;14.77;;;11.43;;
12122;SDS011;6125;59.628;17.852;2023-09-12T13:49:04;14.43;;;11.23;;
12122;SDS011;6125;59.628;17.852;2023-09-12T13:51:32;14.93;;;10.03;;
12122;SDS011;6125;59.628;17.852;2023-09-12T13:54:01;14.07;;;10.77;;
12122;SDS011;6125;59.628;17.852;2023-09-12T13:56:28;14.87;;;11.03;;
12122;SDS011;6125;59.628;17.852;2023-09-12T13:58:55;12.23;;;10.93;;
12122;SDS011;6125;59.628;17.852;2023-09-12T14:01:22;14.03;;;9.73;;
12122;SDS011;6125;59.628;17.852;2023-09-12T14:03:49;12.60;;;9.57;;
12122;SDS011;6125;59.628;17.852;2023-09-12T14:06:18;12.77;;;10.60;;
12122;SDS011;6125;59.628;17.852;2023-09-12T14:08:46;15.33;;;9.77;;
12122;SDS011;6125;59.628;17.852;2023-09-12T14:11:13;14.53;;;10.57;;
12122;SDS011;6125;59.628;17.852;2023-09-12T14:13:40;12.43;;;10.17;;
12122;SDS011;6125;59.628;17.852;2023-09-12T14:16:07;14.70;;;9.93;;
12122;SDS011;6125;59.628;17.852;2023-09-12T14:18:34;13.67;;;10.40;;
12122;SDS011;6125;59.628;17.852;2023-09-12T14:21:02;12.77;;;9.97;;
12122;SDS011;6125;59.628;17.852;2023-09-12T14:23:29;15.20;;;10.47;;
12122;SDS011;6125;59.628;17.852;2023-09-12T14:25:57;10.77;;;9.67;;
12122;SDS011;6125;59.628;17.852;2023-09-12T14:28:25;12.17;;;10.00;;
12122;SDS011;6125;59.628;17.852;2023-09-12T14:30:53;13.33;;;9.57;;
12122;SDS011;6125;59.628;17.852;2023-09-12T14:33:20;11.93;;;9.60;;
12122;SDS011;6125;59.628;17.852;2023-09-12T14:35:47;14.50;;;9.77;;
12122;SDS011;6125;59.628;17.852;2023-09-12T14:38:14;12.50;;;9.80;;
12122;SDS011;6125;59.628;17.852;2023-09-12T14:40:41;11.43;;;10.23;;
12122;SDS011;6125;59.628;17.852;2023-09-12T14:43:10;14.27;;;9.77;;
12122;SDS011;6125;59.628;17.852;2023-09-12T14:45:37;10.57;;;8.87;;